sensor_id;sensor_type;location;lat;lon;timestamp;P1;durP1;ratioP1;P2;durP2;ratioP2
20443;SDS011;10381;53.730;10.010;2024-01-15T00:02:07;32.03;;;22.08;;
20443;SDS011;10381;53.730;10.010;2024-01-15T00:06:08;24.58;;;19.83;;
20443;SDS011;10381;53.730;10.010;2024-01-15T00:10:08;22.13;;;17.97;;
20443;SDS011;10381;53.730;10.010;2024-01-15T00:14:09;24.63;;;19.27;;
20443;SDS011;10381;53.730;10.010;2024-01-15T00:18:09;21.95;;;19.77;;
20443;SDS011;10381;53.730;10.010;2024-01-15T00:22:09;19.48;;;17.48;;
20443;SDS011;10381;53.730;10.010;2024-01-15T00:26:10;31.05;;;16.77;;
20443;SDS011;10381;53.730;10.010;2024-01-15T00:30:11;22.27;;;16.05;;
20443;SDS011;10381;53.730;10.010;2024-01-15T00:34:11;15.80;;;12.82;;
20443;SDS011;10381;53.730;10.010;2024-01-15T00:38:12;25.95;;;12.13;;
20443;SDS011;10381;53.730;10.010;2024-01-15T00:42:12;28.47;;;10.80;;
20443;SDS011;10381;53.730;10.010;2024-01-15T00:46:12;13.32;;;8.02;;
20443;SDS011;10381;53.730;10.010;2024-01-15T00:50:12;17.03;;;7.60;;
20443;SDS011;10381;53.730;10.010;2024-01-15T00:54:13;26.37;;;7.23;;
20443;SDS011;10381;53.730;10.010;2024-01-15T00:58:13;18.92;;;6.22;;
20443;SDS011;10381;53.730;10.010;2024-01-15T01:02:13;18.08;;;6.90;;
20443;SDS011;10381;53.730;10.010;2024-01-15T01:06:14;26.17;;;9.68;;
20443;SDS011;10381;53.730;10.010;2024-01-15T01:10:14;29.17;;;8.43;;
20443;SDS011;10381;53.730;10.010;2024-01-15T01:14:14;21.63;;;7.68;;
20443;SDS011;10381;53.730;10.010;2024-01-15T01:18:15;27.90;;;8.37;;
20443;SDS011;10381;53.730;10.010;2024-01-15T01:22:15;10.23;;;9.10;;
20443;SDS011;10381;53.730;10.010;2024-01-15T01:26:16;14.27;;;9.23;;
20443;SDS011;10381;53.730;10.010;2024-01-15T01:30:17;14.52;;;9.90;;
20443;SDS011;10381;53.730;10.010;2024-01-15T01:34:17;25.88;;;14.93;;
20443;SDS011;10381;53.730;10.010;2024-01-15T01:38:17;39.72;;;21.60;;
20443;SDS011;10381;53.730;10.010;2024-01-15T01:42:17;42.30;;;26.53;;
20443;SDS011;10381;53.730;10.010;2024-01-15T01:46:18;40.77;;;31.13;;
20443;SDS011;10381;53.730;10.010;2024-01-15T01:50:18;47.35;;;34.78;;
20443;SDS011;10381;53.730;10.010;2024-01-15T01:54:19;38.08;;;34.50;;
20443;SDS011;10381;53.730;10.010;2024-01-15T01:58:20;38.60;;;34.97;;
20443;SDS011;10381;53.730;10.010;2024-01-15T02:02:21;42.78;;;37.92;;
20443;SDS011;10381;53.730;10.010;2024-01-15T02:06:23;44.92;;;40.45;;
20443;SDS011;10381;53.730;10.010;2024-01-15T02:10:23;50.13;;;42.60;;
20443;SDS011;10381;53.730;10.010;2024-01-15T02:14:24;61.20;;;44.00;;
20443;SDS011;10381;53.730;10.010;2024-01-15T02:18:24;51.67;;;45.88;;
20443;SDS011;10381;53.730;10.010;2024-01-15T02:22:24;54.33;;;45.50;;
20443;SDS011;10381;53.730;10.010;2024-01-15T02:26:25;53.33;;;46.83;;
20443;SDS011;10381;53.730;10.010;2024-01-15T02:30:26;54.42;;;44.88;;
20443;SDS011;10381;53.730;10.010;2024-01-15T02:34:31;46.92;;;41.67;;
20443;SDS011;10381;53.730;10.010;2024-01-15T02:38:32;43.75;;;39.25;;
20443;SDS011;10381;53.730;10.010;2024-01-15T02:42:32;42.60;;;38.13;;
20443;SDS011;10381;53.730;10.010;2024-01-15T02:46:32;55.43;;;39.80;;
20443;SDS011;10381;53.730;10.010;2024-01-15T02:50:33;43.35;;;39.10;;
20443;SDS011;10381;53.730;10.010;2024-01-15T02:54:33;51.53;;;43.83;;
20443;SDS011;10381;53.730;10.010;2024-01-15T02:58:33;53.17;;;47.00;;
20443;SDS011;10381;53.730;10.010;2024-01-15T03:02:37;64.87;;;48.37;;
20443;SDS011;10381;53.730;10.010;2024-01-15T03:06:43;68.32;;;50.47;;
20443;SDS011;10381;53.730;10.010;2024-01-15T03:10:43;57.50;;;50.72;;
20443;SDS011;10381;53.730;10.010;2024-01-15T03:14:43;52.07;;;46.60;;
20443;SDS011;10381;53.730;10.010;2024-01-15T03:18:44;53.33;;;45.97;;
20443;SDS011;10381;53.730;10.010;2024-01-15T03:22:44;52.47;;;47.00;;
20443;SDS011;10381;53.730;10.010;2024-01-15T03:26:44;74.77;;;51.43;;
20443;SDS011;10381;53.730;10.010;2024-01-15T03:30:44;72.00;;;55.87;;
20443;SDS011;10381;53.730;10.010;2024-01-15T03:34:45;106.80;;;61.70;;
20443;SDS011;10381;53.730;10.010;2024-01-15T03:38:46;76.80;;;64.63;;
20443;SDS011;10381;53.730;10.010;2024-01-15T03:42:47;88.70;;;68.68;;
20443;SDS011;10381;53.730;10.010;2024-01-15T03:46:47;83.83;;;70.17;;
20443;SDS011;10381;53.730;10.010;2024-01-15T03:50:47;82.30;;;63.23;;
20443;SDS011;10381;53.730;10.010;2024-01-15T03:54:48;67.20;;;60.00;;
20443;SDS011;10381;53.730;10.010;2024-01-15T03:58:48;70.37;;;62.23;;
20443;SDS011;10381;53.730;10.010;2024-01-15T04:02:48;76.10;;;63.30;;
20443;SDS011;10381;53.730;10.010;2024-01-15T04:06:48;77.80;;;65.53;;
20443;SDS011;10381;53.730;10.010;2024-01-15T04:10:49;80.00;;;71.30;;
20443;SDS011;10381;53.730;10.010;2024-01-15T04:14:49;78.03;;;66.87;;
20443;SDS011;10381;53.730;10.010;2024-01-15T04:18:49;85.55;;;68.38;;
20443;SDS011;10381;53.730;10.010;2024-01-15T04:22:50;81.90;;;72.07;;
20443;SDS011;10381;53.730;10.010;2024-01-15T04:26:51;73.43;;;66.60;;
20443;SDS011;10381;53.730;10.010;2024-01-15T04:30:51;65.75;;;58.85;;
20443;SDS011;10381;53.730;10.010;2024-01-15T04:34:51;67.63;;;54.27;;
20443;SDS011;10381;53.730;10.010;2024-01-15T04:38:51;64.83;;;47.37;;
20443;SDS011;10381;53.730;10.010;2024-01-15T04:42:52;46.17;;;41.40;;
20443;SDS011;10381;53.730;10.010;2024-01-15T04:46:52;47.97;;;34.70;;
20443;SDS011;10381;53.730;10.010;2024-01-15T04:50:52;34.67;;;31.03;;
20443;SDS011;10381;53.730;10.010;2024-01-15T04:54:52;45.30;;;28.57;;
20443;SDS011;10381;53.730;10.010;2024-01-15T04:58:53;50.90;;;26.77;;
20443;SDS011;10381;53.730;10.010;2024-01-15T05:02:53;57.00;;;21.33;;
20443;SDS011;10381;53.730;10.010;2024-01-15T05:06:55;26.63;;;18.77;;
20443;SDS011;10381;53.730;10.010;2024-01-15T05:10:55;29.90;;;17.15;;
20443;SDS011;10381;53.730;10.010;2024-01-15T05:14:55;19.43;;;12.90;;
20443;SDS011;10381;53.730;10.010;2024-01-15T05:18:56;17.00;;;11.52;;
20443;SDS011;10381;53.730;10.010;2024-01-15T05:22:56;25.35;;;11.00;;
20443;SDS011;10381;53.730;10.010;2024-01-15T05:26:56;19.67;;;10.13;;
20443;SDS011;10381;53.730;10.010;2024-01-15T05:30:57;29.63;;;11.52;;
20443;SDS011;10381;53.730;10.010;2024-01-15T05:34:57;25.92;;;11.15;;
20443;SDS011;10381;53.730;10.010;2024-01-15T05:38:57;16.88;;;9.13;;
20443;SDS011;10381;53.730;10.010;2024-01-15T05:42:58;20.27;;;7.43;;
20443;SDS011;10381;53.730;10.010;2024-01-15T05:46:58;32.45;;;9.45;;
20443;SDS011;10381;53.730;10.010;2024-01-15T05:50:58;21.20;;;7.57;;
20443;SDS011;10381;53.730;10.010;2024-01-15T05:54:59;27.67;;;8.90;;
20443;SDS011;10381;53.730;10.010;2024-01-15T05:58:59;24.33;;;9.40;;
20443;SDS011;10381;53.730;10.010;2024-01-15T06:02:59;37.08;;;8.65;;
20443;SDS011;10381;53.730;10.010;2024-01-15T06:07:00;12.07;;;7.63;;
20443;SDS011;10381;53.730;10.010;2024-01-15T06:11:00;15.10;;;6.80;;
20443;SDS011;10381;53.730;10.010;2024-01-15T06:15:01;21.70;;;8.10;;
20443;SDS011;10381;53.730;10.010;2024-01-15T06:19:02;15.48;;;7.63;;
20443;SDS011;10381;53.730;10.010;2024-01-15T06:23:03;12.05;;;7.18;;
20443;SDS011;10381;53.730;10.010;2024-01-15T06:27:04;12.38;;;8.48;;
20443;SDS011;10381;53.730;10.010;2024-01-15T06:31:08;18.08;;;7.13;;
20443;SDS011;10381;53.730;10.010;2024-01-15T06:35:09;12.95;;;7.75;;
20443;SDS011;10381;53.730;10.010;2024-01-15T06:39:11;14.40;;;7.72;;
20443;SDS011;10381;53.730;10.010;2024-01-15T06:43:12;17.00;;;7.30;;
20443;SDS011;10381;53.730;10.010;2024-01-15T06:47:24;15.15;;;6.90;;
20443;SDS011;10381;53.730;10.010;2024-01-15T06:51:29;13.95;;;7.30;;
20443;SDS011;10381;53.730;10.010;2024-01-15T06:55:29;10.25;;;7.20;;
20443;SDS011;10381;53.730;10.010;2024-01-15T06:59:31;7.32;;;6.20;;
20443;SDS011;10381;53.730;10.010;2024-01-15T07:03:31;33.78;;;5.95;;
20443;SDS011;10381;53.730;10.010;2024-01-15T07:07:32;6.35;;;5.60;;
20443;SDS011;10381;53.730;10.010;2024-01-15T07:11:32;6.47;;;5.85;;
20443;SDS011;10381;53.730;10.010;2024-01-15T07:15:33;9.13;;;5.63;;
20443;SDS011;10381;53.730;10.010;2024-01-15T07:19:33;14.68;;;5.75;;
20443;SDS011;10381;53.730;10.010;2024-01-15T07:23:33;10.98;;;6.00;;
20443;SDS011;10381;53.730;10.010;2024-01-15T07:27:33;11.93;;;6.13;;
20443;SDS011;10381;53.730;10.010;2024-01-15T07:31:34;7.13;;;5.77;;
20443;SDS011;10381;53.730;10.010;2024-01-15T07:35:34;8.03;;;5.80;;
20443;SDS011;10381;53.730;10.010;2024-01-15T07:39:34;20.27;;;7.18;;
20443;SDS011;10381;53.730;10.010;2024-01-15T07:43:35;7.33;;;6.63;;
20443;SDS011;10381;53.730;10.010;2024-01-15T07:47:35;8.00;;;6.70;;
20443;SDS011;10381;53.730;10.010;2024-01-15T07:51:35;15.75;;;7.95;;
20443;SDS011;10381;53.730;10.010;2024-01-15T07:55:43;17.70;;;5.88;;
20443;SDS011;10381;53.730;10.010;2024-01-15T07:59:46;6.45;;;5.95;;
20443;SDS011;10381;53.730;10.010;2024-01-15T08:03:46;18.17;;;7.57;;
20443;SDS011;10381;53.730;10.010;2024-01-15T08:07:46;6.78;;;6.10;;
20443;SDS011;10381;53.730;10.010;2024-01-15T08:11:47;6.80;;;6.05;;
20443;SDS011;10381;53.730;10.010;2024-01-15T08:15:47;11.50;;;6.55;;
20443;SDS011;10381;53.730;10.010;2024-01-15T08:19:48;6.07;;;5.63;;
20443;SDS011;10381;53.730;10.010;2024-01-15T08:23:48;16.57;;;6.60;;
20443;SDS011;10381;53.730;10.010;2024-01-15T08:27:49;8.93;;;6.07;;
20443;SDS011;10381;53.730;10.010;2024-01-15T08:31:50;7.87;;;5.77;;
20443;SDS011;10381;53.730;10.010;2024-01-15T08:35:50;24.13;;;9.32;;
20443;SDS011;10381;53.730;10.010;2024-01-15T08:39:50;9.48;;;6.30;;
20443;SDS011;10381;53.730;10.010;2024-01-15T08:43:51;10.57;;;6.67;;
20443;SDS011;10381;53.730;10.010;2024-01-15T08:47:53;7.32;;;6.47;;
20443;SDS011;10381;53.730;10.010;2024-01-15T08:51:53;6.63;;;5.70;;
20443;SDS011;10381;53.730;10.010;2024-01-15T08:55:53;14.00;;;7.30;;
20443;SDS011;10381;53.730;10.010;2024-01-15T08:59:54;14.13;;;5.88;;
20443;SDS011;10381;53.730;10.010;2024-01-15T09:03:54;18.35;;;5.15;;
20443;SDS011;10381;53.730;10.010;2024-01-15T09:07:54;13.00;;;4.47;;
20443;SDS011;10381;53.730;10.010;2024-01-15T09:11:55;19.58;;;5.30;;
20443;SDS011;10381;53.730;10.010;2024-01-15T09:15:56;9.20;;;5.47;;
20443;SDS011;10381;53.730;10.010;2024-01-15T09:19:56;5.43;;;4.30;;
20443;SDS011;10381;53.730;10.010;2024-01-15T09:23:57;14.55;;;7.28;;
20443;SDS011;10381;53.730;10.010;2024-01-15T09:27:58;16.80;;;6.10;;
20443;SDS011;10381;53.730;10.010;2024-01-15T09:31:58;12.90;;;5.65;;
20443;SDS011;10381;53.730;10.010;2024-01-15T09:36:02;16.83;;;6.55;;
20443;SDS011;10381;53.730;10.010;2024-01-15T09:40:06;11.00;;;5.18;;
20443;SDS011;10381;53.730;10.010;2024-01-15T09:44:08;27.40;;;6.38;;
20443;SDS011;10381;53.730;10.010;2024-01-15T09:48:08;8.70;;;4.55;;
20443;SDS011;10381;53.730;10.010;2024-01-15T09:52:08;13.80;;;6.60;;
20443;SDS011;10381;53.730;10.010;2024-01-15T09:56:11;17.42;;;6.53;;
20443;SDS011;10381;53.730;10.010;2024-01-15T10:00:12;6.28;;;4.90;;
20443;SDS011;10381;53.730;10.010;2024-01-15T10:04:13;9.80;;;5.28;;
20443;SDS011;10381;53.730;10.010;2024-01-15T10:08:13;15.73;;;6.88;;
20443;SDS011;10381;53.730;10.010;2024-01-15T10:12:14;34.88;;;8.70;;
20443;SDS011;10381;53.730;10.010;2024-01-15T10:16:14;15.25;;;7.53;;
20443;SDS011;10381;53.730;10.010;2024-01-15T10:20:15;11.60;;;6.07;;
20443;SDS011;10381;53.730;10.010;2024-01-15T10:24:15;13.00;;;6.38;;
20443;SDS011;10381;53.730;10.010;2024-01-15T10:28:15;19.23;;;9.35;;
20443;SDS011;10381;53.730;10.010;2024-01-15T10:32:16;20.27;;;7.83;;
20443;SDS011;10381;53.730;10.010;2024-01-15T10:36:16;20.83;;;5.03;;
20443;SDS011;10381;53.730;10.010;2024-01-15T10:40:18;7.68;;;5.97;;
20443;SDS011;10381;53.730;10.010;2024-01-15T10:44:19;15.60;;;5.45;;
20443;SDS011;10381;53.730;10.010;2024-01-15T10:48:19;6.38;;;4.32;;
20443;SDS011;10381;53.730;10.010;2024-01-15T10:52:19;25.67;;;6.13;;
20443;SDS011;10381;53.730;10.010;2024-01-15T10:56:21;11.65;;;6.38;;
20443;SDS011;10381;53.730;10.010;2024-01-15T11:00:22;11.77;;;5.72;;
20443;SDS011;10381;53.730;10.010;2024-01-15T11:04:25;9.52;;;4.70;;
20443;SDS011;10381;53.730;10.010;2024-01-15T11:08:28;9.85;;;4.75;;
20443;SDS011;10381;53.730;10.010;2024-01-15T11:12:29;5.53;;;4.50;;
20443;SDS011;10381;53.730;10.010;2024-01-15T11:17:14;10.20;;;8.27;;
20443;SDS011;10381;53.730;10.010;2024-01-15T11:25:18;20.33;;;18.52;;
20443;SDS011;10381;53.730;10.010;2024-01-15T11:29:29;24.80;;;20.58;;
20443;SDS011;10381;53.730;10.010;2024-01-15T11:33:34;21.80;;;19.60;;
20443;SDS011;10381;53.730;10.010;2024-01-15T11:42:07;15.05;;;13.85;;
20443;SDS011;10381;53.730;10.010;2024-01-15T11:46:11;14.18;;;13.07;;
20443;SDS011;10381;53.730;10.010;2024-01-15T11:50:12;13.95;;;12.95;;
20443;SDS011;10381;53.730;10.010;2024-01-15T11:54:13;12.87;;;11.90;;
20443;SDS011;10381;53.730;10.010;2024-01-15T11:58:15;11.98;;;10.98;;
20443;SDS011;10381;53.730;10.010;2024-01-15T12:02:16;13.27;;;12.23;;
20443;SDS011;10381;53.730;10.010;2024-01-15T12:06:16;29.08;;;18.60;;
20443;SDS011;10381;53.730;10.010;2024-01-15T12:10:20;15.45;;;11.27;;
20443;SDS011;10381;53.730;10.010;2024-01-15T12:14:21;12.98;;;11.73;;
20443;SDS011;10381;53.730;10.010;2024-01-15T12:18:22;15.05;;;11.30;;
20443;SDS011;10381;53.730;10.010;2024-01-15T12:22:22;16.27;;;12.07;;
20443;SDS011;10381;53.730;10.010;2024-01-15T12:26:22;13.13;;;12.03;;
20443;SDS011;10381;53.730;10.010;2024-01-15T12:30:23;12.57;;;11.57;;
20443;SDS011;10381;53.730;10.010;2024-01-15T12:34:23;17.63;;;11.88;;
20443;SDS011;10381;53.730;10.010;2024-01-15T12:38:23;11.70;;;10.77;;
20443;SDS011;10381;53.730;10.010;2024-01-15T12:42:24;13.88;;;12.65;;
20443;SDS011;10381;53.730;10.010;2024-01-15T12:46:24;11.67;;;10.77;;
20443;SDS011;10381;53.730;10.010;2024-01-15T12:50:24;12.97;;;11.73;;
20443;SDS011;10381;53.730;10.010;2024-01-15T12:54:26;12.95;;;11.77;;
20443;SDS011;10381;53.730;10.010;2024-01-15T12:58:26;11.82;;;10.98;;
20443;SDS011;10381;53.730;10.010;2024-01-15T13:02:26;12.60;;;10.70;;
20443;SDS011;10381;53.730;10.010;2024-01-15T13:06:27;11.95;;;11.05;;
20443;SDS011;10381;53.730;10.010;2024-01-15T13:10:27;13.63;;;10.60;;
20443;SDS011;10381;53.730;10.010;2024-01-15T13:14:30;12.40;;;11.30;;
20443;SDS011;10381;53.730;10.010;2024-01-15T13:18:30;12.63;;;11.63;;
20443;SDS011;10381;53.730;10.010;2024-01-15T13:22:30;12.17;;;11.27;;
20443;SDS011;10381;53.730;10.010;2024-01-15T13:26:32;20.35;;;13.05;;
20443;SDS011;10381;53.730;10.010;2024-01-15T13:30:38;13.60;;;12.45;;
20443;SDS011;10381;53.730;10.010;2024-01-15T13:34:38;13.40;;;12.13;;
20443;SDS011;10381;53.730;10.010;2024-01-15T13:38:39;13.55;;;12.45;;
20443;SDS011;10381;53.730;10.010;2024-01-15T13:42:40;12.90;;;11.77;;
20443;SDS011;10381;53.730;10.010;2024-01-15T13:46:40;12.50;;;11.60;;
20443;SDS011;10381;53.730;10.010;2024-01-15T13:50:41;13.27;;;12.07;;
20443;SDS011;10381;53.730;10.010;2024-01-15T13:54:41;14.20;;;12.73;;
20443;SDS011;10381;53.730;10.010;2024-01-15T13:58:42;12.23;;;11.32;;
20443;SDS011;10381;53.730;10.010;2024-01-15T14:02:43;13.52;;;12.43;;
20443;SDS011;10381;53.730;10.010;2024-01-15T14:06:43;13.02;;;11.93;;
20443;SDS011;10381;53.730;10.010;2024-01-15T14:10:43;13.67;;;12.27;;
20443;SDS011;10381;53.730;10.010;2024-01-15T14:14:44;13.60;;;12.35;;
20443;SDS011;10381;53.730;10.010;2024-01-15T14:18:44;13.13;;;11.93;;
20443;SDS011;10381;53.730;10.010;2024-01-15T14:22:44;12.53;;;11.53;;
20443;SDS011;10381;53.730;10.010;2024-01-15T14:26:45;12.63;;;11.60;;
20443;SDS011;10381;53.730;10.010;2024-01-15T14:30:45;14.93;;;13.45;;
20443;SDS011;10381;53.730;10.010;2024-01-15T14:34:46;12.40;;;11.50;;
20443;SDS011;10381;53.730;10.010;2024-01-15T14:38:46;13.07;;;12.05;;
20443;SDS011;10381;53.730;10.010;2024-01-15T14:42:46;13.27;;;12.10;;
20443;SDS011;10381;53.730;10.010;2024-01-15T14:46:46;17.77;;;12.83;;
20443;SDS011;10381;53.730;10.010;2024-01-15T14:50:47;13.47;;;11.83;;
20443;SDS011;10381;53.730;10.010;2024-01-15T14:54:47;11.27;;;10.37;;
20443;SDS011;10381;53.730;10.010;2024-01-15T14:58:47;11.65;;;10.65;;
20443;SDS011;10381;53.730;10.010;2024-01-15T15:02:48;13.15;;;11.13;;
20443;SDS011;10381;53.730;10.010;2024-01-15T15:06:48;13.43;;;12.13;;
20443;SDS011;10381;53.730;10.010;2024-01-15T15:10:48;11.40;;;10.40;;
20443;SDS011;10381;53.730;10.010;2024-01-15T15:14:49;10.00;;;9.30;;
20443;SDS011;10381;53.730;10.010;2024-01-15T15:18:49;10.67;;;9.30;;
20443;SDS011;10381;53.730;10.010;2024-01-15T15:22:49;10.93;;;9.57;;
20443;SDS011;10381;53.730;10.010;2024-01-15T15:26:51;10.85;;;9.52;;
20443;SDS011;10381;53.730;10.010;2024-01-15T15:30:51;10.27;;;8.98;;
20443;SDS011;10381;53.730;10.010;2024-01-15T15:34:52;10.20;;;9.30;;
20443;SDS011;10381;53.730;10.010;2024-01-15T15:38:53;13.30;;;9.55;;
20443;SDS011;10381;53.730;10.010;2024-01-15T15:42:56;16.60;;;8.10;;
20443;SDS011;10381;53.730;10.010;2024-01-15T15:46:56;15.00;;;9.50;;
20443;SDS011;10381;53.730;10.010;2024-01-15T15:50:56;15.60;;;10.02;;
20443;SDS011;10381;53.730;10.010;2024-01-15T15:54:59;14.65;;;9.27;;
20443;SDS011;10381;53.730;10.010;2024-01-15T15:59:00;24.40;;;12.25;;
20443;SDS011;10381;53.730;10.010;2024-01-15T16:03:01;72.50;;;25.88;;
20443;SDS011;10381;53.730;10.010;2024-01-15T16:07:01;15.27;;;10.33;;
20443;SDS011;10381;53.730;10.010;2024-01-15T16:11:03;11.52;;;7.90;;
20443;SDS011;10381;53.730;10.010;2024-01-15T16:15:03;17.73;;;7.40;;
20443;SDS011;10381;53.730;10.010;2024-01-15T16:19:17;70.72;;;26.60;;
20443;SDS011;10381;53.730;10.010;2024-01-15T16:23:17;23.60;;;12.07;;
20443;SDS011;10381;53.730;10.010;2024-01-15T16:27:17;25.92;;;11.65;;
20443;SDS011;10381;53.730;10.010;2024-01-15T16:31:17;13.57;;;6.67;;
20443;SDS011;10381;53.730;10.010;2024-01-15T16:35:18;9.30;;;5.43;;
20443;SDS011;10381;53.730;10.010;2024-01-15T16:39:18;10.95;;;6.22;;
20443;SDS011;10381;53.730;10.010;2024-01-15T16:43:18;10.50;;;5.93;;
20443;SDS011;10381;53.730;10.010;2024-01-15T16:47:20;13.77;;;6.20;;
20443;SDS011;10381;53.730;10.010;2024-01-15T16:51:20;10.35;;;5.47;;
20443;SDS011;10381;53.730;10.010;2024-01-15T16:55:23;13.45;;;6.18;;
20443;SDS011;10381;53.730;10.010;2024-01-15T16:59:25;8.60;;;4.57;;
20443;SDS011;10381;53.730;10.010;2024-01-15T17:03:26;7.68;;;3.90;;
20443;SDS011;10381;53.730;10.010;2024-01-15T17:07:26;5.40;;;3.55;;
20443;SDS011;10381;53.730;10.010;2024-01-15T17:11:27;7.78;;;4.60;;
20443;SDS011;10381;53.730;10.010;2024-01-15T17:15:28;12.82;;;3.92;;
20443;SDS011;10381;53.730;10.010;2024-01-15T17:19:28;9.00;;;4.35;;
20443;SDS011;10381;53.730;10.010;2024-01-15T17:23:28;7.32;;;3.08;;
20443;SDS011;10381;53.730;10.010;2024-01-15T17:27:29;10.43;;;3.57;;
20443;SDS011;10381;53.730;10.010;2024-01-15T17:31:29;8.03;;;3.20;;
20443;SDS011;10381;53.730;10.010;2024-01-15T17:35:30;8.45;;;3.42;;
20443;SDS011;10381;53.730;10.010;2024-01-15T17:39:31;11.00;;;3.67;;
20443;SDS011;10381;53.730;10.010;2024-01-15T17:43:33;6.32;;;3.65;;
20443;SDS011;10381;53.730;10.010;2024-01-15T17:47:36;30.52;;;9.70;;
20443;SDS011;10381;53.730;10.010;2024-01-15T17:51:36;12.43;;;5.45;;
20443;SDS011;10381;53.730;10.010;2024-01-15T17:55:36;21.03;;;7.50;;
20443;SDS011;10381;53.730;10.010;2024-01-15T17:59:37;22.90;;;9.70;;
20443;SDS011;10381;53.730;10.010;2024-01-15T18:03:37;20.30;;;7.53;;
20443;SDS011;10381;53.730;10.010;2024-01-15T18:07:38;27.70;;;10.48;;
20443;SDS011;10381;53.730;10.010;2024-01-15T18:11:39;22.60;;;7.50;;
20443;SDS011;10381;53.730;10.010;2024-01-15T18:15:39;20.83;;;9.02;;
20443;SDS011;10381;53.730;10.010;2024-01-15T18:19:40;10.88;;;6.80;;
20443;SDS011;10381;53.730;10.010;2024-01-15T18:23:40;8.95;;;6.20;;
20443;SDS011;10381;53.730;10.010;2024-01-15T18:27:41;7.32;;;4.93;;
20443;SDS011;10381;53.730;10.010;2024-01-15T18:31:41;9.47;;;5.97;;
20443;SDS011;10381;53.730;10.010;2024-01-15T18:35:41;10.60;;;5.00;;
20443;SDS011;10381;53.730;10.010;2024-01-15T18:39:42;9.40;;;5.63;;
20443;SDS011;10381;53.730;10.010;2024-01-15T18:43:43;11.70;;;5.93;;
20443;SDS011;10381;53.730;10.010;2024-01-15T18:47:44;6.83;;;4.80;;
20443;SDS011;10381;53.730;10.010;2024-01-15T18:51:45;8.05;;;5.53;;
20443;SDS011;10381;53.730;10.010;2024-01-15T18:55:46;7.20;;;5.20;;
20443;SDS011;10381;53.730;10.010;2024-01-15T18:59:46;5.63;;;4.07;;
20443;SDS011;10381;53.730;10.010;2024-01-15T19:03:47;5.10;;;4.53;;
20443;SDS011;10381;53.730;10.010;2024-01-15T19:07:47;5.17;;;4.30;;
20443;SDS011;10381;53.730;10.010;2024-01-15T19:11:47;7.75;;;5.47;;
20443;SDS011;10381;53.730;10.010;2024-01-15T19:15:48;5.30;;;4.10;;
20443;SDS011;10381;53.730;10.010;2024-01-15T19:19:49;11.25;;;4.25;;
20443;SDS011;10381;53.730;10.010;2024-01-15T19:23:51;12.45;;;5.32;;
20443;SDS011;10381;53.730;10.010;2024-01-15T19:27:51;4.87;;;4.40;;
20443;SDS011;10381;53.730;10.010;2024-01-15T19:31:52;6.00;;;5.22;;
20443;SDS011;10381;53.730;10.010;2024-01-15T19:35:53;8.00;;;5.85;;
20443;SDS011;10381;53.730;10.010;2024-01-15T19:39:53;9.33;;;6.13;;
20443;SDS011;10381;53.730;10.010;2024-01-15T19:43:54;12.27;;;6.20;;
20443;SDS011;10381;53.730;10.010;2024-01-15T19:47:54;8.32;;;6.07;;
20443;SDS011;10381;53.730;10.010;2024-01-15T19:51:55;7.28;;;5.75;;
20443;SDS011;10381;53.730;10.010;2024-01-15T19:55:55;10.77;;;6.53;;
20443;SDS011;10381;53.730;10.010;2024-01-15T19:59:56;10.60;;;5.25;;
20443;SDS011;10381;53.730;10.010;2024-01-15T20:03:56;17.67;;;6.93;;
20443;SDS011;10381;53.730;10.010;2024-01-15T20:07:56;6.87;;;5.37;;
20443;SDS011;10381;53.730;10.010;2024-01-15T20:11:57;13.20;;;4.93;;
20443;SDS011;10381;53.730;10.010;2024-01-15T20:15:58;6.80;;;4.97;;
20443;SDS011;10381;53.730;10.010;2024-01-15T20:20:05;4.72;;;4.32;;
20443;SDS011;10381;53.730;10.010;2024-01-15T20:24:10;11.27;;;4.65;;
20443;SDS011;10381;53.730;10.010;2024-01-15T20:28:10;5.87;;;3.90;;
20443;SDS011;10381;53.730;10.010;2024-01-15T20:32:10;4.30;;;3.93;;
20443;SDS011;10381;53.730;10.010;2024-01-15T20:36:13;4.35;;;4.03;;
20443;SDS011;10381;53.730;10.010;2024-01-15T20:40:13;7.72;;;5.30;;
20443;SDS011;10381;53.730;10.010;2024-01-15T20:44:13;5.05;;;4.60;;
20443;SDS011;10381;53.730;10.010;2024-01-15T20:48:14;4.63;;;4.23;;
20443;SDS011;10381;53.730;10.010;2024-01-15T20:52:14;8.20;;;5.47;;
20443;SDS011;10381;53.730;10.010;2024-01-15T20:56:14;7.95;;;5.53;;
20443;SDS011;10381;53.730;10.010;2024-01-15T21:00:15;6.53;;;5.03;;
20443;SDS011;10381;53.730;10.010;2024-01-15T21:04:16;7.72;;;4.13;;
20443;SDS011;10381;53.730;10.010;2024-01-15T21:08:16;18.30;;;6.43;;
20443;SDS011;10381;53.730;10.010;2024-01-15T21:12:17;7.70;;;5.68;;
20443;SDS011;10381;53.730;10.010;2024-01-15T21:16:17;18.40;;;4.67;;
20443;SDS011;10381;53.730;10.010;2024-01-15T21:20:18;5.03;;;4.60;;
20443;SDS011;10381;53.730;10.010;2024-01-15T21:24:18;4.78;;;4.35;;
20443;SDS011;10381;53.730;10.010;2024-01-15T21:28:22;4.32;;;3.97;;
20443;SDS011;10381;53.730;10.010;2024-01-15T21:32:22;4.28;;;3.97;;
20443;SDS011;10381;53.730;10.010;2024-01-15T21:36:23;5.20;;;4.28;;
20443;SDS011;10381;53.730;10.010;2024-01-15T21:40:23;7.30;;;4.88;;
20443;SDS011;10381;53.730;10.010;2024-01-15T21:44:23;10.73;;;4.80;;
20443;SDS011;10381;53.730;10.010;2024-01-15T21:48:24;22.70;;;4.80;;
20443;SDS011;10381;53.730;10.010;2024-01-15T21:52:24;6.07;;;5.37;;
20443;SDS011;10381;53.730;10.010;2024-01-15T21:56:27;4.95;;;4.55;;
20443;SDS011;10381;53.730;10.010;2024-01-15T22:00:28;4.32;;;3.97;;
20443;SDS011;10381;53.730;10.010;2024-01-15T22:04:28;5.88;;;5.38;;
20443;SDS011;10381;53.730;10.010;2024-01-15T22:08:28;6.07;;;4.85;;
20443;SDS011;10381;53.730;10.010;2024-01-15T22:12:29;4.72;;;4.43;;
20443;SDS011;10381;53.730;10.010;2024-01-15T22:16:29;6.18;;;5.68;;
20443;SDS011;10381;53.730;10.010;2024-01-15T22:20:29;5.82;;;4.97;;
20443;SDS011;10381;53.730;10.010;2024-01-15T22:24:30;13.68;;;6.07;;
20443;SDS011;10381;53.730;10.010;2024-01-15T22:28:31;6.73;;;5.63;;
20443;SDS011;10381;53.730;10.010;2024-01-15T22:32:31;6.95;;;6.25;;
20443;SDS011;10381;53.730;10.010;2024-01-15T22:36:31;9.10;;;6.93;;
20443;SDS011;10381;53.730;10.010;2024-01-15T22:40:32;7.07;;;6.23;;
20443;SDS011;10381;53.730;10.010;2024-01-15T22:44:32;5.88;;;5.43;;
20443;SDS011;10381;53.730;10.010;2024-01-15T22:48:32;12.02;;;6.35;;
20443;SDS011;10381;53.730;10.010;2024-01-15T22:52:32;14.83;;;7.80;;
20443;SDS011;10381;53.730;10.010;2024-01-15T22:56:33;11.20;;;6.33;;
20443;SDS011;10381;53.730;10.010;2024-01-15T23:00:33;6.43;;;5.47;;
20443;SDS011;10381;53.730;10.010;2024-01-15T23:04:33;7.33;;;6.53;;
20443;SDS011;10381;53.730;10.010;2024-01-15T23:08:34;11.27;;;7.23;;
20443;SDS011;10381;53.730;10.010;2024-01-15T23:12:34;7.60;;;6.90;;
20443;SDS011;10381;53.730;10.010;2024-01-15T23:16:35;13.13;;;7.57;;
20443;SDS011;10381;53.730;10.010;2024-01-15T23:20:35;9.10;;;7.30;;
20443;SDS011;10381;53.730;10.010;2024-01-15T23:24:36;13.85;;;6.80;;
20443;SDS011;10381;53.730;10.010;2024-01-15T23:28:36;10.40;;;7.30;;
20443;SDS011;10381;53.730;10.010;2024-01-15T23:32:36;16.17;;;6.97;;
20443;SDS011;10381;53.730;10.010;2024-01-15T23:36:37;10.07;;;6.93;;